createdAt,value
2023-03-05T00:01:30.169Z,5.00
2023-03-05T00:03:58.652Z,5.00
2023-03-05T00:06:30.819Z,5.00
2023-03-05T00:08:59.295Z,5.00
2023-03-05T00:11:30.013Z,5.00
2023-03-05T00:13:59.803Z,5.00
2023-03-05T00:16:29.365Z,5.00
2023-03-05T00:18:59.239Z,5.00
2023-03-05T00:21:30.870Z,5.00
2023-03-05T00:24:01.045Z,5.00
2023-03-05T00:26:29.992Z,5.00
2023-03-05T00:28:59.176Z,5.00
2023-03-05T00:31:31.018Z,5.00
2023-03-05T00:34:00.889Z,5.00
2023-03-05T00:36:30.918Z,4.90
2023-03-05T00:38:59.513Z,4.90
2023-03-05T00:41:28.409Z,5.00
2023-03-05T00:43:56.956Z,4.90
2023-03-05T00:46:27.421Z,4.90
2023-03-05T00:48:56.169Z,4.90
2023-03-05T00:51:26.559Z,4.90
2023-03-05T00:53:56.703Z,4.90
2023-03-05T00:56:24.886Z,4.90
2023-03-05T00:58:53.339Z,4.90
2023-03-05T01:01:21.572Z,4.90
2023-03-05T01:03:49.634Z,4.90
2023-03-05T01:06:18.626Z,4.90
2023-03-05T01:08:47.157Z,4.80
2023-03-05T01:11:16.606Z,4.70
2023-03-05T01:13:44.809Z,4.70
2023-03-05T01:16:13.031Z,4.70
2023-03-05T01:18:41.733Z,4.70
2023-03-05T01:21:10.012Z,4.70
2023-03-05T01:23:38.369Z,4.70
2023-03-05T01:26:08.482Z,4.80
2023-03-05T01:28:38.602Z,4.70
2023-03-05T01:31:10.635Z,4.80
2023-03-05T01:33:38.830Z,4.80
2023-03-05T01:36:10.133Z,4.80
2023-03-05T01:38:38.173Z,4.70
2023-03-05T01:41:06.364Z,4.70
2023-03-05T01:43:34.504Z,4.70
2023-03-05T01:46:30.380Z,4.60
2023-03-05T01:49:07.153Z,4.60
2023-03-05T01:51:40.745Z,4.60
2023-03-05T01:54:11.639Z,4.50
2023-03-05T01:56:40.994Z,4.50
2023-03-05T01:59:09.832Z,4.40
2023-03-05T02:01:42.388Z,4.40
2023-03-05T02:04:12.506Z,4.30
2023-03-05T02:06:42.572Z,4.30
2023-03-05T02:09:11.085Z,4.20
2023-03-05T02:11:39.188Z,4.20
2023-03-05T02:14:10.091Z,4.20
2023-03-05T02:16:40.245Z,4.10
2023-03-05T02:19:11.257Z,4.10
2023-03-05T02:21:43.291Z,4.10
2023-03-05T02:24:13.722Z,4.10
2023-03-05T02:26:43.235Z,4.10
2023-03-05T02:29:14.011Z,4.10
2023-03-05T02:31:42.205Z,4.10
2023-03-05T02:34:10.350Z,4.20
2023-03-05T02:36:39.757Z,4.10
2023-03-05T02:39:09.582Z,4.20
2023-03-05T02:41:37.799Z,4.20
2023-03-05T02:44:06.325Z,4.20
2023-03-05T02:46:34.280Z,4.20
2023-03-05T02:49:02.406Z,4.30
2023-03-05T02:51:30.628Z,4.30
2023-03-05T02:54:00.021Z,4.40
2023-03-05T02:56:28.127Z,4.40
2023-03-05T02:58:56.432Z,4.30
2023-03-05T03:01:24.718Z,4.30
2023-03-05T03:03:52.799Z,4.40
2023-03-05T03:06:20.988Z,4.40
2023-03-05T03:08:49.166Z,4.40
2023-03-05T03:11:18.758Z,4.40
2023-03-05T03:13:46.854Z,4.40
2023-03-05T03:16:16.901Z,4.40
2023-03-05T03:18:47.426Z,4.40
2023-03-05T03:21:20.036Z,4.40
2023-03-05T03:23:48.179Z,4.30
2023-03-05T03:26:16.786Z,4.30
2023-03-05T03:28:46.677Z,4.30
2023-03-05T03:31:14.939Z,4.20
2023-03-05T03:33:43.109Z,4.20
2023-03-05T03:36:11.485Z,4.10
2023-03-05T03:38:39.582Z,4.10
2023-03-05T03:41:08.480Z,4.10
2023-03-05T03:43:36.817Z,4.10
2023-03-05T03:46:07.707Z,4.10
2023-03-05T03:48:36.516Z,4.00
2023-03-05T03:51:08.916Z,4.00
2023-03-05T03:53:37.003Z,4.00
2023-03-05T03:56:05.661Z,4.00
2023-03-05T03:58:34.244Z,4.00
2023-03-05T04:01:02.363Z,4.00
2023-03-05T04:03:31.772Z,4.00
2023-03-05T04:05:59.791Z,4.00
2023-03-05T04:08:27.952Z,3.90
2023-03-05T04:10:56.108Z,3.90
2023-03-05T04:13:24.200Z,4.00
2023-03-05T04:15:52.301Z,4.00
2023-03-05T04:18:20.466Z,4.00
2023-03-05T04:20:49.983Z,4.00
2023-03-05T04:23:18.949Z,4.00
2023-03-05T04:25:47.078Z,4.00
2023-03-05T04:28:15.133Z,4.10
2023-03-05T04:30:43.218Z,4.10
2023-03-05T04:33:11.341Z,4.10
2023-03-05T04:35:39.519Z,4.10
2023-03-05T04:38:09.229Z,4.10
2023-03-05T04:40:38.894Z,4.10
2023-03-05T04:43:07.112Z,4.10
2023-03-05T04:45:35.843Z,4.20
2023-03-05T04:48:03.968Z,4.20
2023-03-05T04:50:32.050Z,4.20
2023-03-05T04:53:00.644Z,4.20
2023-03-05T04:55:30.060Z,4.10
2023-03-05T04:57:58.418Z,4.10
2023-03-05T05:00:26.817Z,4.10
2023-03-05T05:02:55.197Z,4.10
2023-03-05T05:05:25.440Z,4.10
2023-03-05T05:07:55.404Z,4.10
2023-03-05T05:10:24.298Z,4.00
2023-03-05T05:12:54.048Z,4.10
2023-03-05T05:15:22.317Z,4.10
2023-03-05T05:17:50.470Z,4.00
2023-03-05T05:20:18.899Z,4.00
2023-03-05T05:22:46.949Z,4.10
2023-03-05T05:25:14.994Z,4.00
2023-03-05T05:27:43.207Z,4.00
2023-03-05T05:30:13.937Z,4.00
2023-03-05T05:32:42.042Z,4.00
2023-03-05T05:35:11.724Z,4.00
2023-03-05T05:37:39.809Z,4.00
2023-03-05T05:40:09.504Z,4.00
2023-03-05T05:42:37.747Z,4.00
2023-03-05T05:45:06.774Z,4.00
2023-03-05T05:47:36.057Z,4.00
2023-03-05T05:50:04.626Z,4.00
2023-03-05T05:52:32.895Z,4.00
2023-03-05T05:55:00.963Z,4.00
2023-03-05T05:57:29.048Z,4.00
2023-03-05T05:59:57.553Z,4.00
2023-03-05T06:02:27.672Z,4.00
2023-03-05T06:04:58.389Z,4.00
2023-03-05T06:07:26.585Z,4.00
2023-03-05T06:09:54.619Z,4.00
2023-03-05T06:12:22.742Z,4.00
2023-03-05T06:14:50.772Z,4.00
2023-03-05T06:17:28.751Z,4.00
2023-03-05T06:20:01.095Z,4.00
2023-03-05T06:22:29.528Z,3.90
2023-03-05T06:24:57.651Z,4.00
2023-03-05T06:27:25.772Z,3.90
2023-03-05T06:29:56.584Z,4.00
2023-03-05T06:32:25.236Z,4.00
2023-03-05T06:34:53.625Z,4.00
2023-03-05T06:37:23.006Z,4.00
2023-03-05T06:39:51.150Z,4.00
2023-03-05T06:42:19.456Z,4.00
2023-03-05T06:44:48.417Z,4.00
2023-03-05T06:47:16.564Z,4.00
2023-03-05T06:49:44.822Z,4.10
2023-03-05T06:52:12.899Z,4.10
2023-03-05T06:54:42.479Z,4.10
2023-03-05T06:57:11.410Z,4.00
2023-03-05T06:59:39.555Z,4.00
2023-03-05T07:02:09.895Z,4.10
2023-03-05T07:04:38.216Z,4.10
2023-03-05T07:07:06.453Z,4.10
2023-03-05T07:09:34.456Z,4.10
2023-03-05T07:12:04.176Z,4.10
2023-03-05T07:14:32.237Z,4.10
2023-03-05T07:17:00.323Z,4.10
2023-03-05T07:19:28.630Z,4.20
2023-03-05T07:21:56.669Z,4.20
2023-03-05T07:24:29.746Z,4.20
2023-03-05T07:26:58.463Z,4.20
2023-03-05T07:29:29.334Z,4.20
2023-03-05T07:31:57.538Z,4.30
2023-03-05T07:34:27.207Z,4.30
2023-03-05T07:36:55.510Z,4.40
2023-03-05T07:39:23.651Z,4.40
2023-03-05T07:41:52.673Z,4.50
2023-03-05T07:44:20.873Z,4.60
2023-03-05T07:46:50.171Z,4.70
2023-03-05T07:49:18.391Z,4.70
2023-03-05T07:51:46.803Z,4.70
2023-03-05T07:54:15.072Z,4.70
2023-03-05T07:56:43.262Z,4.80
2023-03-05T07:59:13.947Z,4.80
2023-03-05T08:01:42.125Z,4.80
2023-03-05T08:04:11.612Z,4.90
2023-03-05T08:06:41.525Z,5.00
2023-03-05T08:09:09.653Z,5.00
2023-03-05T08:11:37.703Z,5.00
2023-03-05T08:14:05.743Z,5.10
2023-03-05T08:16:33.860Z,5.10
2023-03-05T08:19:02.349Z,5.20
2023-03-05T08:21:34.496Z,5.20
2023-03-05T08:24:04.287Z,5.20
2023-03-05T08:26:33.786Z,5.20
2023-03-05T08:29:02.649Z,5.20
2023-03-05T08:31:31.257Z,5.10
2023-03-05T08:34:01.285Z,5.10
2023-03-05T08:36:31.392Z,5.10
2023-03-05T08:38:59.895Z,5.20
2023-03-05T08:41:28.239Z,5.20
2023-03-05T08:43:56.539Z,5.20
2023-03-05T08:46:24.588Z,5.20
2023-03-05T08:48:52.920Z,5.20
2023-03-05T08:51:25.406Z,5.20
2023-03-05T08:53:56.420Z,5.20
2023-03-05T08:56:26.232Z,5.30
2023-03-05T08:58:54.391Z,5.40
2023-03-05T09:01:22.640Z,5.50
2023-03-05T09:03:51.253Z,5.50
2023-03-05T09:06:19.474Z,5.60
2023-03-05T09:08:47.862Z,5.60
2023-03-05T09:11:17.523Z,5.60
2023-03-05T09:13:45.732Z,5.70
2023-03-05T09:16:16.107Z,5.80
2023-03-05T09:18:44.592Z,6.10
2023-03-05T09:21:14.713Z,6.30
2023-03-05T09:23:43.329Z,6.50
2023-03-05T09:26:13.388Z,6.60
2023-03-05T09:28:43.623Z,6.60
2023-03-05T09:31:12.581Z,6.60
2023-03-05T09:33:41.404Z,6.60
2023-03-05T09:36:20.766Z,6.70
2023-03-05T09:38:49.139Z,6.60
2023-03-05T09:41:26.055Z,6.70
2023-03-05T09:44:03.741Z,6.80
2023-03-05T09:46:47.847Z,6.80
2023-03-05T09:49:20.557Z,6.90
2023-03-05T09:51:56.846Z,7.00
2023-03-05T09:54:30.391Z,7.00
2023-03-05T09:57:02.637Z,7.10
2023-03-05T09:59:36.365Z,7.00
2023-03-05T10:02:13.976Z,7.10
2023-03-05T10:04:47.592Z,7.00
2023-03-05T10:07:21.094Z,7.00
2023-03-05T10:09:55.749Z,7.00
2023-03-05T10:12:28.999Z,7.10
2023-03-05T10:15:00.853Z,7.20
2023-03-05T10:17:51.798Z,7.10
2023-03-05T10:20:55.050Z,7.10
2023-03-05T10:23:41.416Z,7.20
2023-03-05T10:26:21.547Z,7.30
2023-03-05T10:28:59.337Z,7.40
2023-03-05T10:31:53.889Z,7.50
2023-03-05T10:34:54.851Z,7.60
2023-03-05T10:37:40.030Z,7.80
2023-03-05T10:40:24.685Z,7.90
2023-03-05T10:43:00.134Z,7.90
2023-03-05T10:45:33.265Z,8.10
2023-03-05T10:48:10.442Z,8.20
2023-03-05T10:50:43.898Z,8.30
2023-03-05T10:53:24.679Z,8.30
2023-03-05T10:55:56.214Z,8.40
2023-03-05T10:58:25.903Z,8.50
2023-03-05T11:01:02.133Z,8.30
2023-03-05T11:03:49.233Z,8.40
2023-03-05T11:06:27.222Z,8.40
2023-03-05T11:08:55.495Z,8.50
2023-03-05T11:11:24.293Z,8.30
2023-03-05T11:13:55.628Z,8.30
2023-03-05T11:16:26.235Z,8.30
2023-03-05T11:19:18.616Z,8.30
2023-03-05T11:21:48.209Z,8.30
2023-03-05T11:24:18.257Z,8.20
2023-03-05T11:26:50.985Z,8.10
2023-03-05T11:29:23.903Z,8.10
2023-03-05T11:31:53.095Z,8.10
2023-03-05T11:34:31.458Z,8.10
2023-03-05T11:37:06.324Z,8.10
2023-03-05T11:39:38.302Z,8.10
2023-03-05T11:42:10.883Z,8.20
2023-03-05T11:44:46.669Z,8.30
2023-03-05T11:47:22.455Z,8.30
2023-03-05T11:49:58.603Z,8.40
2023-03-05T11:52:31.105Z,8.40
2023-03-05T11:55:04.198Z,8.40
2023-03-05T11:57:40.693Z,8.20
2023-03-05T12:00:14.320Z,8.30
2023-03-05T12:02:42.942Z,8.30
2023-03-05T12:05:16.942Z,8.40
2023-03-05T12:07:49.902Z,8.50
2023-03-05T12:10:20.916Z,8.60
2023-03-05T12:12:53.868Z,8.50
2023-03-05T12:15:50.560Z,8.50
2023-03-05T12:18:34.514Z,8.60
2023-03-05T12:21:10.222Z,8.60
2023-03-05T12:23:50.323Z,8.60
2023-03-05T12:26:18.754Z,8.80
2023-03-05T12:28:59.597Z,8.90
2023-03-05T12:31:38.682Z,8.90
2023-03-05T12:34:48.562Z,9.00
2023-03-05T12:37:50.115Z,9.10
2023-03-05T12:40:25.170Z,9.00
2023-03-05T12:42:55.638Z,9.00
2023-03-05T12:45:35.150Z,9.10
2023-03-05T12:48:43.802Z,9.10
2023-03-05T12:51:27.984Z,9.00
2023-03-05T12:53:56.262Z,9.30
2023-03-05T12:56:29.334Z,9.40
2023-03-05T12:59:01.226Z,9.30
2023-03-05T13:01:37.288Z,9.10
2023-03-05T13:04:11.113Z,8.90
2023-03-05T13:06:40.201Z,9.00
2023-03-05T13:09:17.445Z,9.10
2023-03-05T13:11:50.551Z,9.20
2023-03-05T13:14:33.192Z,9.00
2023-03-05T13:17:01.407Z,9.20
2023-03-05T13:19:32.936Z,9.50
2023-03-05T13:22:02.962Z,9.40
2023-03-05T13:24:31.955Z,9.30
2023-03-05T13:27:01.651Z,9.30
2023-03-05T13:29:31.277Z,9.20
2023-03-05T13:32:01.950Z,9.20
2023-03-05T13:34:46.247Z,9.10
2023-03-05T13:37:19.415Z,9.20
2023-03-05T13:39:51.080Z,9.00
2023-03-05T13:42:21.943Z,9.00
2023-03-05T13:44:56.138Z,9.00
2023-03-05T13:47:28.413Z,9.00
2023-03-05T13:50:00.017Z,8.90
2023-03-05T13:52:31.631Z,8.90
2023-03-05T13:55:01.683Z,8.80
2023-03-05T13:57:40.121Z,8.90
2023-03-05T14:00:28.190Z,9.00
2023-03-05T14:02:59.666Z,9.10
2023-03-05T14:05:28.133Z,9.00
2023-03-05T14:07:56.760Z,8.90
2023-03-05T14:10:37.833Z,8.80
2023-03-05T14:13:15.728Z,8.70
2023-03-05T14:15:44.084Z,8.40
2023-03-05T14:18:20.479Z,8.40
2023-03-05T14:21:09.843Z,8.40
2023-03-05T14:23:40.967Z,8.40
2023-03-05T14:26:28.960Z,8.40
2023-03-05T14:29:01.924Z,8.40
2023-03-05T14:31:32.414Z,8.40
2023-03-05T14:34:05.979Z,8.40
2023-03-05T14:36:34.958Z,8.30
2023-03-05T14:39:03.152Z,8.20
2023-03-05T14:41:38.181Z,8.20
2023-03-05T14:44:15.775Z,8.10
2023-03-05T14:46:44.235Z,8.00
2023-03-05T14:49:12.318Z,8.10
2023-03-05T14:51:42.256Z,7.90
2023-03-05T14:54:21.145Z,7.90
2023-03-05T14:56:49.883Z,7.80
2023-03-05T14:59:21.252Z,7.50
2023-03-05T15:01:50.398Z,7.30
2023-03-05T15:04:20.094Z,7.10
2023-03-05T15:06:50.988Z,7.10
2023-03-05T15:09:21.107Z,6.90
2023-03-05T15:11:50.895Z,6.90
2023-03-05T15:14:20.355Z,6.70
2023-03-05T15:16:48.846Z,6.60
2023-03-05T15:19:17.845Z,6.60
2023-03-05T15:21:45.915Z,6.50
2023-03-05T15:24:14.839Z,6.60
2023-03-05T15:26:42.874Z,6.50
2023-03-05T15:29:10.997Z,6.60
2023-03-05T15:31:40.597Z,6.70
2023-03-05T15:34:08.755Z,6.70
2023-03-05T15:36:36.836Z,6.70
2023-03-05T15:39:04.918Z,6.70
2023-03-05T15:41:32.998Z,6.70
2023-03-05T15:44:01.068Z,6.70
2023-03-05T15:46:29.063Z,6.70
2023-03-05T15:48:58.543Z,6.70
2023-03-05T15:51:26.559Z,6.80
2023-03-05T15:53:54.797Z,6.70
2023-03-05T15:56:22.844Z,6.70
2023-03-05T15:58:51.327Z,6.80
2023-03-05T16:01:20.724Z,6.80
2023-03-05T16:03:48.912Z,6.90
2023-03-05T16:06:20.572Z,6.90
2023-03-05T16:08:49.529Z,6.90
2023-03-05T16:11:18.053Z,6.90
2023-03-05T16:13:46.127Z,6.90
2023-03-05T16:16:15.083Z,6.90
2023-03-05T16:18:45.818Z,7.00
2023-03-05T16:21:14.824Z,7.00
2023-03-05T16:23:44.373Z,6.90
2023-03-05T16:26:12.412Z,7.00
2023-03-05T16:28:40.456Z,6.90
2023-03-05T16:31:08.563Z,6.90
2023-03-05T16:33:36.644Z,6.80
2023-03-05T16:36:23.471Z,6.80
2023-03-05T16:38:55.145Z,6.70
2023-03-05T16:41:24.396Z,6.70
2023-03-05T16:43:56.202Z,6.70
2023-03-05T16:46:25.418Z,6.70
2023-03-05T16:48:54.383Z,6.60
2023-03-05T16:51:23.095Z,6.60
2023-03-05T16:53:53.583Z,6.60
2023-03-05T16:56:22.928Z,6.50
2023-03-05T16:58:53.350Z,6.50
2023-03-05T17:01:22.645Z,6.50
2023-03-05T17:03:52.477Z,6.40
2023-03-05T17:06:22.255Z,6.40
2023-03-05T17:08:53.150Z,6.40
2023-03-05T17:11:21.953Z,6.30
2023-03-05T17:13:50.264Z,6.30
2023-03-05T17:16:20.084Z,6.30
2023-03-05T17:18:48.795Z,6.30
2023-03-05T17:21:17.328Z,6.20
2023-03-05T17:23:45.479Z,6.20
2023-03-05T17:26:17.644Z,6.10
2023-03-05T17:28:46.086Z,6.10
2023-03-05T17:31:15.192Z,6.20
2023-03-05T17:33:43.901Z,6.10
2023-03-05T17:36:16.125Z,6.10
2023-03-05T17:38:44.933Z,6.10
2023-03-05T17:41:14.602Z,6.00
2023-03-05T17:43:43.394Z,6.00
2023-03-05T17:46:12.161Z,6.00
2023-03-05T17:48:40.297Z,5.90
2023-03-05T17:51:08.726Z,5.90
2023-03-05T17:53:39.010Z,5.90
2023-03-05T17:56:08.984Z,5.90
2023-03-05T17:58:39.345Z,5.90
2023-03-05T18:01:08.626Z,5.80
2023-03-05T18:03:37.606Z,5.80
2023-03-05T18:06:06.195Z,5.80
2023-03-05T18:08:34.342Z,5.80
2023-03-05T18:11:02.369Z,5.80
2023-03-05T18:13:30.460Z,5.70
2023-03-05T18:16:00.740Z,5.70
2023-03-05T18:18:28.902Z,5.70
2023-03-05T18:20:57.076Z,5.60
2023-03-05T18:23:25.173Z,5.60
2023-03-05T18:25:53.418Z,5.60
2023-03-05T18:28:21.764Z,5.60
2023-03-05T18:30:49.871Z,5.60
2023-03-05T18:33:22.970Z,5.60
2023-03-05T18:35:52.419Z,5.60
2023-03-05T18:38:21.295Z,5.50
2023-03-05T18:40:51.241Z,5.50
2023-03-05T18:43:20.514Z,5.50
2023-03-05T18:45:49.276Z,5.50
2023-03-05T18:48:18.805Z,5.40
2023-03-05T18:50:47.490Z,5.40
2023-03-05T18:53:16.071Z,5.40
2023-03-05T18:55:45.374Z,5.40
2023-03-05T18:58:16.267Z,5.30
2023-03-05T19:00:47.400Z,5.30
2023-03-05T19:03:20.683Z,5.30
2023-03-05T19:05:53.742Z,5.30
2023-03-05T19:08:23.816Z,5.30
2023-03-05T19:10:53.909Z,5.30
2023-03-05T19:13:35.413Z,5.30
2023-03-05T19:16:10.172Z,5.30
2023-03-05T19:18:45.248Z,5.20
2023-03-05T19:21:16.395Z,5.20
2023-03-05T19:23:46.385Z,5.20
2023-03-05T19:26:14.572Z,5.20
2023-03-05T19:28:42.734Z,5.20
2023-03-05T19:31:10.896Z,5.10
2023-03-05T19:33:38.998Z,5.10
2023-03-05T19:36:09.693Z,5.10
2023-03-05T19:38:40.025Z,5.10
2023-03-05T19:41:10.465Z,5.10
2023-03-05T19:43:38.663Z,5.10
2023-03-05T19:46:08.308Z,5.00
2023-03-05T19:48:38.111Z,5.00
2023-03-05T19:51:11.471Z,5.00
2023-03-05T19:53:41.385Z,5.00
2023-03-05T19:56:10.395Z,5.00
2023-03-05T19:58:40.537Z,4.90
2023-03-05T20:01:10.401Z,5.00
2023-03-05T20:03:39.065Z,4.90
2023-03-05T20:06:07.672Z,4.90
2023-03-05T20:08:36.331Z,4.90
2023-03-05T20:11:06.335Z,4.90
2023-03-05T20:13:34.593Z,4.90
2023-03-05T20:16:02.915Z,4.90
2023-03-05T20:18:31.721Z,4.90
2023-03-05T20:21:02.830Z,4.90
2023-03-05T20:23:31.044Z,4.80
2023-03-05T20:25:59.326Z,4.80
2023-03-05T20:28:28.873Z,4.80
2023-03-05T20:30:57.898Z,4.90
2023-03-05T20:33:27.402Z,4.80
2023-03-05T20:35:56.629Z,4.70
2023-03-05T20:38:26.055Z,4.70
2023-03-05T20:40:55.870Z,4.60
2023-03-05T20:43:25.212Z,4.60
2023-03-05T20:45:58.023Z,4.60
2023-03-05T20:48:27.449Z,4.50
2023-03-05T20:50:56.253Z,4.40
2023-03-05T20:53:24.834Z,4.40
2023-03-05T20:55:52.893Z,4.40
2023-03-05T20:58:20.958Z,4.40
2023-03-05T21:00:49.052Z,4.30
2023-03-05T21:03:18.507Z,4.30
2023-03-05T21:05:47.710Z,4.30
2023-03-05T21:08:15.926Z,4.20
2023-03-05T21:10:44.012Z,4.20
2023-03-05T21:13:12.074Z,4.30
2023-03-05T21:15:41.531Z,4.30
2023-03-05T21:18:09.651Z,4.20
2023-03-05T21:20:39.651Z,4.20
2023-03-05T21:23:07.847Z,4.20
2023-03-05T21:25:36.011Z,4.20
2023-03-05T21:28:06.353Z,4.20
2023-03-05T21:30:38.275Z,4.20
2023-03-05T21:33:08.866Z,4.20
2023-03-05T21:35:39.252Z,4.20
2023-03-05T21:38:08.024Z,4.20
2023-03-05T21:40:38.342Z,4.20
2023-03-05T21:43:07.069Z,4.20
2023-03-05T21:45:35.195Z,4.20
2023-03-05T21:48:03.435Z,4.20
2023-03-05T21:50:33.508Z,4.20
2023-03-05T21:53:03.648Z,4.20
2023-03-05T21:55:43.049Z,4.20
2023-03-05T21:58:11.269Z,4.20
2023-03-05T22:00:39.603Z,4.10
2023-03-05T22:03:07.713Z,4.10
2023-03-05T22:05:35.826Z,4.10
2023-03-05T22:08:05.805Z,4.10
2023-03-05T22:10:33.847Z,4.20
2023-03-05T22:13:12.236Z,4.10
2023-03-05T22:15:44.709Z,4.10
2023-03-05T22:18:13.559Z,4.10
2023-03-05T22:20:42.560Z,4.10
2023-03-05T22:23:13.180Z,4.10
2023-03-05T22:25:42.241Z,4.00
2023-03-05T22:28:11.167Z,4.00
2023-03-05T22:30:44.179Z,4.00
2023-03-05T22:33:12.663Z,4.00
2023-03-05T22:35:41.700Z,4.00
2023-03-05T22:38:11.662Z,3.90
2023-03-05T22:40:43.797Z,4.00
2023-03-05T22:43:12.701Z,3.90
2023-03-05T22:45:41.597Z,4.00
2023-03-05T22:48:10.800Z,3.90
2023-03-05T22:50:39.280Z,3.90
2023-03-05T22:53:07.604Z,3.90
2023-03-05T22:55:39.628Z,3.90
2023-03-05T22:58:07.780Z,3.90
2023-03-05T23:00:35.848Z,3.90
2023-03-05T23:03:04.301Z,3.90
2023-03-05T23:05:32.446Z,3.90
2023-03-05T23:08:00.495Z,3.90
2023-03-05T23:10:29.636Z,3.90
2023-03-05T23:13:00.712Z,3.80
2023-03-05T23:15:31.575Z,3.80
2023-03-05T23:18:00.326Z,3.80
2023-03-05T23:20:31.097Z,3.70
2023-03-05T23:22:59.706Z,3.70
2023-03-05T23:25:30.167Z,3.60
2023-03-05T23:28:00.498Z,3.60
2023-03-05T23:30:29.605Z,3.50
2023-03-05T23:32:59.329Z,3.50
2023-03-05T23:35:29.493Z,3.50
2023-03-05T23:37:59.023Z,3.50
2023-03-05T23:40:29.369Z,3.50
2023-03-05T23:42:58.939Z,3.50
2023-03-05T23:45:27.949Z,3.40
2023-03-05T23:47:56.069Z,3.40
2023-03-05T23:50:25.829Z,3.30
2023-03-05T23:52:55.038Z,3.30
2023-03-05T23:55:25.368Z,3.20
2023-03-05T23:57:54.425Z,3.20
